Tiempo atmosférico en la estación meteorológica de Arcos de Jalón, Soria (863 m.)



Fecha
DESCASC
Temp. máxima en grados centígrados (hora)
DESCASC
Temp. mínima en grados centígrados (hora)
DESCASC
Temp. media en grados centígrados
DESCASC
Racha de viento máxima en m/sg (hora)
DESCASC
Velocidad máxima media en intervalos de 10 minutos(hora)
DESCASC
Precipitaciones diarias en mm
DESCASC
Precipitaciones de 00:00 a 06:00 en mm
DESCASC
Precipitaciones de 06:00 a 12:00 en mm
DESCASC
Precipitaciones de 12:00 a 18:00 en mm
DESCASC
Precipitaciones de 18:00 a 24:00 en mm
DESCASC
06-07-2020 31.2 (16:20) 15.2 (06:40) 23.2 9.44 (19:30) 5.83 (20:20) 0 0 0 0 0
05-07-2020 34.3 (18:50) 12.7 (06:00) 23.5 7.5 (13:30) 3.89 (06:10) 0 0 0 0 0
04-07-2020 31.7 (18:30) 9.9 (07:10) 20.8 8.33 (22:30) 5.28 (22:10) 0 0 0 0 0
03-07-2020 28.2 (20:00) 12.1 (07:10) 20.2 9.17 (01:20) 5.28 (01:20) 0 0 0 0 0
02-07-2020 32 (16:20) 14.4 (00:00) 23.2 11.39 (22:40) 7.22 (15:20) 0 0 0 0 0
01-07-2020 33 (18:20) 17.7 (00:00) 25.4 10 (12:50) 5.83 (12:20) 0 0 0 0 0
30-06-2020 35.8 (17:10) 15.7 (00:00) 25.7 10.83 (16:20) 6.39 (17:10) 0 0 0 0 0
29-06-2020 34.5 (17:40) 14.9 (00:00) 24.7 9.44 (17:00) 6.39 (20:20) 0 0 0 0 0
28-06-2020 32.9 (17:40) 16.2 (00:00) 24.6 10.83 (18:30) 5.28 (18:30) 0 0 0 0 0
27-06-2020 30.7 (16:50) 13.1 (00:00) 21.9 10.83 (14:30) 4.44 (20:30) 0 0 0 0 0
26-06-2020 -- (--) -- (--) -- -- (--) -- (--) -- -- -- 0 0
25-06-2020 -- (--) -- (--) -- -- (--) -- (--) -- 0 0 0 --
24-06-2020 30.8 (18:50) 17.2 (00:00) 24 16.39 (14:30) 10.28 (14:50) 0 0 0 0 0
23-06-2020 34.3 (17:00) 13.2 (00:00) 23.7 8.33 (20:40) 5 (23:00) 0.2 0 0 0 0.2
22-06-2020 31.6 (17:50) 11.6 (00:00) 21.6 7.5 (20:30) 3.61 (20:30) 0 0 0 0 0
21-06-2020 30.6 (17:10) 13.5 (00:00) 22.1 10.83 (17:10) 6.67 (22:20) 0 0 0 0 0
20-06-2020 29.9 (18:00) 12.8 (00:00) 21.3 9.72 (14:50) 5 (18:20) 0 0 0 0 0
19-06-2020 27.8 (18:30) 9.5 (00:00) 18.6 9.72 (13:40) 6.11 (16:40) 0 0 0 0 0
18-06-2020 24 (18:30) 8.7 (06:50) 16.3 7.78 (19:50) 5 (19:50) 0.2 0.2 0 0 0
17-06-2020 22.4 (18:50) 8.4 (00:00) 15.4 7.22 (18:10) 4.44 (17:30) 0 0 0 0 0
16-06-2020 22.5 (17:40) 12.2 (00:00) 17.3 16.11 (18:30) 9.72 (18:30) 0 0 0 0 0
15-06-2020 23.9 (16:00) 10.1 (00:00) 17 8.61 (19:40) 5.28 (17:30) 0.4 0 0 0 0.4
14-06-2020 22.6 (15:40) 9.4 (00:00) 16 9.17 (15:40) 5.56 (14:30) 0 0 0 0 0
13-06-2020 20.9 (17:50) 8.5 (00:00) 14.7 12.5 (14:30) 7.78 (13:30) 0 0 0 0 0
12-06-2020 18.8 (18:00) 7.2 (00:00) 13 15.28 (19:10) 10.28 (19:10) 0.2 0 0 0 0.2
11-06-2020 21.8 (17:30) 8.8 (00:00) 15.3 15.83 (18:00) 10.28 (18:10) 0.2 0 0 0 0.2
10-06-2020 21.7 (16:00) 5.5 (00:00) 13.6 8.61 (16:20) 5 (16:20) 0 0 0 0 0

Gráficas

Temp. máximas Temp. mínimas Temp. medias Precipitaciones Rachas de viento máximas Velocidades máximas media en intervalos de 10 minutos

Datos horarios

Fecha y hora oficial Temperatura (ºC) Velocidad del viento (km/h) Dirección del viento Racha (km/h) Dirección de racha Precipitación (mm) Presión (hPa) Tendencia (hPa) Humedad (%)
2020-07-09 23:00:00 17.8 3 Nordeste 34 Sudeste 0 -- -- 72
2020-07-09 22:00:00 17.1 12 Sudeste 44 Sudeste 0 -- -- 75
2020-07-09 21:00:00 17.3 20 Sur 42 Sur 0 -- -- 78
2020-07-09 20:00:00 18.8 4 Este 22 Sudoeste 0.6 -- -- 80
2020-07-09 19:00:00 19.8 21 Sudoeste 32 Sudoeste 0 -- -- 69
2020-07-09 18:00:00 22.9 11 Sudoeste 23 Oeste -- -- -- 57
2020-07-09 17:00:00 25.9 8 Sudeste 21 Sudeste 0 -- -- 41
2020-07-09 16:00:00 26.4 7 Sudeste 31 Nordeste 0 -- -- 40
2020-07-09 15:00:00 28.5 22 Nordeste 48 Nordeste 0 -- -- 34
2020-07-09 14:00:00 30.3 18 Norte 44 Norte 0 -- -- 31
2020-07-09 13:00:00 27.5 12 Norte 26 Nordeste 0 -- -- 39
2020-07-09 12:00:00 28.2 13 Nordeste 24 Nordeste 0 -- -- 36
2020-07-09 11:00:00 26.6 12 Norte 25 Nordeste 0 -- -- 37
2020-07-09 10:00:00 25.7 9 Nordeste 17 Nordeste 0 -- -- 39
2020-07-09 09:00:00 23 6 Sudoeste 15 Sudoeste 0 -- -- 46
2020-07-09 08:00:00 18.3 6 Sudoeste 19 Sudoeste 0 -- -- 59
2020-07-09 07:00:00 17.5 8 Sudoeste 14 Oeste 0 -- -- 60
2020-07-09 06:00:00 18.1 9 Sudoeste 13 Sur 0 -- -- 58
2020-07-09 05:00:00 19.1 8 Sudoeste 18 Sudoeste 0 -- -- 54
2020-07-09 04:00:00 19.6 5 Sudeste 18 Sudoeste 0 -- -- 53
2020-07-09 03:00:00 19.8 5 Norte 28 Sudoeste 0 -- -- 53
2020-07-09 02:00:00 21.1 6 Norte 23 Oeste 0 -- -- 51
2020-07-09 01:00:00 22.2 14 Sudoeste 42 Oeste 0 -- -- 47
2020-07-09 00:00:00 23.4 21 Oeste 32 Oeste 0 -- -- 44
2020-07-08 23:00:00 23.9 9 Norte 19 Norte 0 -- -- 43
2020-07-08 22:00:00 24.3 12 Norte 19 Norte 0 -- -- 44
2020-07-08 21:00:00 24.8 11 Este 27 Este 0 -- -- 41
2020-07-08 20:00:00 25.2 10 Este 30 Nordeste 0 -- -- 42
2020-07-08 19:00:00 25.4 20 Nordeste 44 Este 0 -- -- 43
2020-07-08 18:00:00 25 12 Nordeste 98 Sudoeste 0 -- -- 42
2020-07-08 17:00:00 31.5 32 Sudoeste 64 Sudoeste 0 -- -- 27
2020-07-08 16:00:00 35.1 10 Noroeste 23 Oeste 0 -- -- 19
2020-07-08 15:00:00 33.2 11 Norte 24 Norte 0 -- -- 21
2020-07-08 14:00:00 33.6 4 Norte 13 Norte 0 -- -- 21
2020-07-08 13:00:00 31.8 7 Nordeste 14 Sur 0 -- -- 25
2020-07-08 12:00:00 28.7 8 Sudeste 24 Noroeste 0 -- -- 33
2020-07-08 11:00:00 24.6 15 Sudoeste 65 Sudoeste 0 -- -- 40
2020-07-08 10:00:00 21.1 7 Sudoeste 14 Sudoeste 0 -- -- 46
2020-07-08 09:00:00 20.2 4 Este 15 Oeste 0 -- -- 43
2020-07-08 08:00:00 18.6 18 Sudoeste 34 Sudoeste 0 -- -- 46
2020-07-08 07:00:00 15.7 6 Oeste 11 Oeste 0 -- -- 55
2020-07-08 06:00:00 14.8 2 Sudoeste 7 Sudoeste 0 -- -- 57
2020-07-08 05:00:00 15.3 5 Sudoeste 9 Sudoeste 0 -- -- 55
2020-07-08 04:00:00 16 3 Sudoeste 7 Sudoeste 0 -- -- 53
2020-07-08 03:00:00 17 0 Calma 5 Sur 0 -- -- 53
2020-07-08 02:00:00 18.6 2 Sudoeste 6 Sudoeste 0 -- -- 49
2020-07-08 01:00:00 20.1 3 Sur 6 Nordeste 0 -- -- 45
2020-07-08 00:00:00 23.3 3 Nordeste 27 Norte 0 -- -- 38
2020-07-07 23:00:00 25.3 14 Nordeste 24 Nordeste 0 -- -- 34
2020-07-07 22:00:00 26.8 14 Nordeste 24 Nordeste 0 -- -- 30
2020-07-07 21:00:00 29.2 12 Nordeste 29 Nordeste 0 -- -- 28
2020-07-07 20:00:00 31.2 18 Nordeste 30 Norte 0 -- -- 26
2020-07-07 19:00:00 33.5 18 Nordeste 29 Nordeste 0 -- -- 25
2020-07-07 18:00:00 36.3 13 Oeste 28 Sudoeste 0 -- -- 25
2020-07-07 17:00:00 35.9 13 Oeste 31 Oeste 0 -- -- 25
2020-07-07 16:00:00 35.1 10 Oeste 33 Oeste 0 -- -- 26
2020-07-07 15:00:00 34.2 14 Oeste 24 Sudoeste 0 -- -- 29
2020-07-07 14:00:00 32 9 Nordeste 19 Nordeste 0 -- -- 25
2020-07-07 13:00:00 30.6 9 Nordeste 17 Nordeste 0 -- -- 21
2020-07-07 12:00:00 28.8 8 Nordeste 13 Nordeste 0 -- -- 20
2020-07-07 11:00:00 26.2 4 Nordeste 8 Norte 0 -- -- 17
2020-07-07 10:00:00 23 3 Sudoeste 6 Sudeste 0 -- -- 19
2020-07-07 09:00:00 19.5 4 Sur 15 Sudoeste 0 -- -- 31
2020-07-07 08:00:00 15.3 13 Sudoeste 19 Sudoeste 0 -- -- 36
2020-07-07 07:00:00 11.6 11 Sudoeste 14 Sudoeste 0 -- -- 45
2020-07-07 06:00:00 11.7 9 Sudoeste 13 Sudoeste 0 -- -- 46
2020-07-07 05:00:00 12.7 5 Sudoeste 8 Sudoeste 0 -- -- 49
2020-07-07 04:00:00 14.2 3 Sudoeste 6 Sur 0 -- -- 47
2020-07-07 03:00:00 16 2 Sudeste 10 Oeste 0 -- -- 41
2020-07-07 02:00:00 17.1 3 Nordeste 16 Oeste 0 -- -- 39
2020-07-07 01:00:00 17.8 4 Noroeste 20 Noroeste 0 -- -- 51
2020-07-07 00:00:00 19.3 5 Norte 16 Norte 0 -- -- 55
2020-07-06 23:00:00 20.4 6 Nordeste 18 Norte 0 -- -- 55
2020-07-06 22:00:00 22 5 Norte 28 Norte 0 -- -- 50
2020-07-06 21:00:00 24.5 16 Noroeste 33 Noroeste 0 -- -- 46
2020-07-06 20:00:00 27 19 Noroeste 34 Noroeste 0 -- -- 40
2020-07-06 19:00:00 29.5 14 Norte 27 Noroeste 0 -- -- 34
2020-07-06 18:00:00 30.7 12 Noroeste 26 Norte 0 -- -- 33
2020-07-06 17:00:00 31 12 Norte 27 Norte 0 -- -- 32
2020-07-06 16:00:00 30.8 10 Norte 30 Norte 0 -- -- 34
2020-07-06 15:00:00 30.4 12 Noroeste 27 Norte 0 -- -- 36
2020-07-06 14:00:00 30.2 11 Noroeste 26 Noroeste 0 -- -- 35
2020-07-06 13:00:00 29.4 7 Noroeste 19 Noroeste 0 -- -- 36
2020-07-06 12:00:00 27.8 8 Norte 18 Noroeste 0 -- -- 39
2020-07-06 11:00:00 25.9 9 Noroeste 22 Oeste 0 -- -- 43
2020-07-06 10:00:00 24.2 6 Norte 22 Norte 0 -- -- 45
2020-07-06 09:00:00 22.2 9 Norte 17 Noroeste 0 -- -- 50
2020-07-06 08:00:00 17.7 0 Calma 7 Sudoeste 0 -- -- 67
2020-07-06 07:00:00 15.2 3 Sudoeste 6 Sur 0 -- -- 74
2020-07-06 06:00:00 15.6 3 Sur 5 Sudoeste 0 -- -- 73
2020-07-06 05:00:00 16.4 3 Sur 7 Sudoeste 0 -- -- 71
2020-07-06 04:00:00 16.9 3 Sur 4 Sur 0 -- -- 69
2020-07-06 03:00:00 18 3 Sur 7 Sur 0 -- -- 66
2020-07-06 02:00:00 19.4 2 Sudoeste 4 Este 0 -- -- 61
2020-07-06 01:00:00 22 3 Sudeste 12 Norte 0 -- -- 54
2020-07-06 00:00:00 23.7 4 Norte 21 Norte 0 -- -- 50
2020-07-05 23:00:00 25.5 10 Noroeste 20 Norte 0 -- -- 44
2020-07-05 22:00:00 27.9 9 Nordeste 19 Nordeste 0 -- -- 36
2020-07-05 21:00:00 30.5 12 Nordeste 23 Nordeste 0 -- -- 31
2020-07-05 20:00:00 32 7 Nordeste 19 Nordeste 0 -- -- 24
2020-07-05 19:00:00 33.9 7 Noroeste 22 Noroeste 0 -- -- 21
2020-07-05 18:00:00 33.5 5 Este 19 Norte 0 -- -- 21
2020-07-05 17:00:00 33.3 7 Noroeste 22 Noroeste 0 -- -- 21
2020-07-05 16:00:00 32.6 8 Norte 25 Oeste 0 -- -- 22
2020-07-05 15:00:00 32.7 6 Sudeste 22 Norte 0 -- -- 22
2020-07-05 14:00:00 31.1 5 Norte 27 Sur 0 -- -- 25
2020-07-05 13:00:00 30.2 5 Oeste 21 Norte 0 -- -- 26
2020-07-05 12:00:00 28.3 4 Sur 13 Norte 0 -- -- 31
2020-07-05 11:00:00 26 6 Norte 13 Norte 0 -- -- 36
2020-07-05 10:00:00 23.7 3 Este 7 Sudoeste 0 -- -- 42
2020-07-05 09:00:00 19.6 3 Oeste 11 Oeste 0 -- -- 52
2020-07-05 08:00:00 15.3 9 Sudoeste 15 Sudoeste 0 -- -- 62
2020-07-05 07:00:00 13.1 13 Sudoeste 18 Sudoeste 0 -- -- 67
2020-07-05 06:00:00 12.7 13 Sudoeste 15 Sudoeste 0 -- -- 68
2020-07-05 05:00:00 13.6 9 Sudoeste 11 Sudoeste 0 -- -- 65
2020-07-05 04:00:00 13.9 4 Sudoeste 8 Sudoeste 0 -- -- 62
2020-07-05 03:00:00 14.6 2 Sur 4 Sur 0 -- -- 58
2020-07-05 02:00:00 15.9 2 Sudoeste 4 Sudoeste 0 -- -- 53
2020-07-05 01:00:00 18.7 2 Sur 19 Noroeste 0 -- -- 44
2020-07-05 00:00:00 20.6 6 Noroeste 23 Norte 0 -- -- 39
2020-07-04 23:00:00 22.4 13 Noroeste 30 Noroeste 0 -- -- 33
2020-07-04 22:00:00 24.3 18 Noroeste 27 Noroeste 0 -- -- 28
2020-07-04 21:00:00 28.1 15 Norte 24 Norte 0 -- -- 22
2020-07-04 20:00:00 29.9 9 Norte 20 Nordeste 0 -- -- 18
2020-07-04 19:00:00 30.9 4 Norte 19 Oeste 0 -- -- 16
2020-07-04 18:00:00 31.3 9 Noroeste 22 Oeste 0 -- -- 18
2020-07-04 17:00:00 31 5 Nordeste 24 Oeste 0 -- -- 16
2020-07-04 16:00:00 30.2 8 Noroeste 20 Oeste 0 -- -- 16
2020-07-04 15:00:00 29.7 8 Oeste 26 Oeste 0 -- -- 17
2020-07-04 14:00:00 28.4 7 Sudoeste 18 Sudoeste 0 -- -- 21
2020-07-04 13:00:00 27.2 6 Oeste 16 Norte 0 -- -- 24
2020-07-04 12:00:00 24.4 7 Nordeste 19 Nordeste 0 -- -- 28
2020-07-04 11:00:00 22.2 4 Este 11 Este 0 -- -- 41
2020-07-04 10:00:00 20 3 Nordeste 6 Norte 0 -- -- 46
2020-07-04 09:00:00 16.2 3 Oeste 14 Sudoeste 0 -- -- 61
2020-07-04 08:00:00 12 11 Oeste 15 Sudoeste 0 -- -- 75
2020-07-04 07:00:00 10.1 9 Sudoeste 14 Sudoeste 0 -- -- 79
2020-07-04 06:00:00 10.6 9 Sudoeste 14 Sudoeste 0 -- -- 77
2020-07-04 05:00:00 11 11 Sudoeste 13 Sudoeste 0 -- -- 78
2020-07-04 04:00:00 11.2 9 Sudoeste 12 Sur 0 -- -- 79
2020-07-04 03:00:00 12.6 8 Sudoeste 12 Oeste 0 -- -- 73
2020-07-04 02:00:00 14.2 4 Sudoeste 8 Sudoeste 0 -- -- 66
2020-07-04 01:00:00 16 0 Calma 13 Noroeste 0 -- -- 61
2020-07-04 00:00:00 17 9 Noroeste 22 Norte 0 -- -- 59
2020-07-03 23:00:00 19 12 Noroeste 24 Noroeste 0 -- -- 53
2020-07-03 22:00:00 21.5 9 Norte 28 Noroeste 0 -- -- 46
2020-07-03 21:00:00 26.2 14 Noroeste 24 Oeste 0 -- -- 35
2020-07-03 20:00:00 28.2 8 Oeste 21 Noroeste 0 -- -- 25
2020-07-03 19:00:00 27.3 10 Nordeste 19 Nordeste 0 -- -- 29
2020-07-03 18:00:00 27.1 5 Este 22 Nordeste 0 -- -- 31
2020-07-03 17:00:00 27.1 6 Norte 14 Noroeste 0 -- -- 30
2020-07-03 16:00:00 26.2 7 Este 18 Noroeste 0 -- -- 33
2020-07-03 15:00:00 24.7 6 Norte 17 Este 0 -- -- 37
2020-07-03 14:00:00 23.4 6 Nordeste 21 Este 0 -- -- 44
2020-07-03 13:00:00 22 7 Nordeste 18 Nordeste 0 -- -- 48
2020-07-03 12:00:00 20.2 7 Nordeste 18 Nordeste 0 -- -- 53
2020-07-03 11:00:00 18.9 9 Nordeste 17 Nordeste 0 -- -- 57
2020-07-03 10:00:00 17.5 6 Nordeste 15 Nordeste 0 -- -- 60
2020-07-03 09:00:00 15.1 6 Norte 19 Norte 0 -- -- 66
2020-07-03 08:00:00 13.1 10 Noroeste 16 Noroeste 0 -- -- 74
2020-07-03 07:00:00 12.2 8 Noroeste 18 Noroeste 0 -- -- 78
2020-07-03 06:00:00 13.1 10 Noroeste 21 Norte 0 -- -- 75
2020-07-03 05:00:00 12.7 10 Noroeste 23 Noroeste 0 -- -- 79
2020-07-03 04:00:00 13.2 13 Noroeste 26 Noroeste 0 -- -- 76
2020-07-03 03:00:00 13.5 12 Noroeste 28 Norte 0 -- -- 75
2020-07-03 02:00:00 14.4 16 Noroeste 33 Norte 0 -- -- 73
2020-07-03 01:00:00 14.9 18 Noroeste 30 Noroeste 0 -- -- 73
2020-07-03 00:00:00 15.5 13 Noroeste 33 Norte 0 -- -- 72
2020-07-02 23:00:00 16.2 19 Noroeste 41 Norte 0 -- -- 71
2020-07-02 22:00:00 18.3 19 Noroeste 35 Norte 0 -- -- 65
2020-07-02 21:00:00 22.1 14 Noroeste 26 Noroeste 0 -- -- 56
2020-07-02 20:00:00 24.4 14 Nordeste 26 Nordeste 0 -- -- 54
2020-07-02 19:00:00 25.8 10 Nordeste 29 Norte 0 -- -- 50
2020-07-02 18:00:00 30.2 11 Oeste 24 Sudoeste 0 -- -- 32
2020-07-02 17:00:00 30.4 16 Sur 40 Sudoeste 0 -- -- 26
2020-07-02 16:00:00 31.5 17 Sudoeste 39 Sudoeste 0 -- -- 25
2020-07-02 15:00:00 30.3 12 Sur 31 Sur 0 -- -- 26
2020-07-02 14:00:00 30 10 Sudoeste 22 Sudoeste 0 -- -- 34
2020-07-02 13:00:00 28.1 6 Sudoeste 17 Oeste 0 -- -- 38
2020-07-02 12:00:00 26.4 4 Noroeste 17 Norte 0 -- -- 42
2020-07-02 11:00:00 24.8 9 Norte 21 Norte 0 -- -- 46
2020-07-02 10:00:00 23.2 9 Noroeste 28 Noroeste 0 -- -- 51
2020-07-02 09:00:00 19.8 2 Sur 8 Sudoeste 0 -- -- 60
2020-07-02 08:00:00 16.1 6 Sudoeste 15 Sudoeste 0 -- -- 64
2020-07-02 07:00:00 14.4 10 Sudoeste 21 Sudoeste 0 -- -- 70
2020-07-02 06:00:00 15.7 10 Sudoeste 13 Sudoeste 0 -- -- 64
2020-07-02 05:00:00 15.6 8 Sudoeste 16 Sudoeste 0 -- -- 70
2020-07-02 04:00:00 16.7 10 Oeste 13 Oeste 0 -- -- 63
2020-07-02 03:00:00 17.7 10 Sudoeste 13 Sudoeste 0 -- -- 71
2020-07-02 02:00:00 19.4 8 Sudoeste 13 Oeste 0 -- -- 64
2020-07-02 01:00:00 21.8 6 Sudoeste 9 Oeste 0 -- -- 59
2020-07-02 00:00:00 23.4 5 Noroeste 20 Oeste 0 -- -- 58
2020-07-01 23:00:00 24.5 4 Noroeste 14 Sudoeste 0 -- -- 34
2020-07-01 22:00:00 26.9 5 Sudoeste 21 Sudoeste 0 -- -- 31
2020-07-01 21:00:00 30.8 13 Oeste 23 Sudoeste 0 -- -- 27
2020-07-01 20:00:00 29.3 8 Oeste 22 Oeste 0 -- -- 36
2020-07-01 19:00:00 31.9 16 Oeste 35 Oeste 0 -- -- 31
2020-07-01 18:00:00 32.7 16 Oeste 30 Oeste 0 -- -- 28
2020-07-01 17:00:00 30.8 16 Oeste 28 Oeste 0 -- -- 32
2020-07-01 16:00:00 32.2 17 Oeste 30 Oeste 0 -- -- 31
2020-07-01 15:00:00 32.9 20 Sudoeste 35 Sur 0 -- -- 27
2020-07-01 14:00:00 31.8 15 Sudoeste 30 Sudoeste 0 -- -- 30
2020-07-01 13:00:00 31.1 17 Sudoeste 36 Sudoeste 0 -- -- 31
2020-07-01 12:00:00 29.7 18 Sudoeste 31 Sur 0 -- -- 36
2020-07-01 11:00:00 28.3 16 Sudoeste 26 Sudoeste 0 -- -- 41
2020-07-01 10:00:00 25.5 5 Nordeste 11 Norte 0 -- -- 52
2020-07-01 09:00:00 22.2 7 Nordeste 12 Nordeste 0 -- -- 65
2020-07-01 08:00:00 19.7 3 Nordeste 10 Oeste 0 -- -- 74
2020-07-01 07:00:00 19.3 3 Oeste 19 Sudoeste 0 -- -- 71
2020-07-01 06:00:00 17.9 10 Oeste 15 Oeste 0 -- -- 79
2020-07-01 05:00:00 18 10 Sudoeste 13 Sudoeste 0 -- -- 78
2020-07-01 04:00:00 18.1 7 Sudoeste 12 Sudoeste 0 -- -- 75
2020-07-01 03:00:00 19.6 8 Sudoeste 10 Sudoeste 0 -- -- 69
2020-07-01 02:00:00 21.1 0 Calma 8 Sudoeste 0 -- -- 67
2020-07-01 01:00:00 22.2 2 Noroeste 13 Norte 0 -- -- 62
2020-07-01 00:00:00 23.8 7 Norte 15 Noroeste 0 -- -- 56
2020-06-30 23:00:00 25.1 4 Nordeste 13 Norte 0 -- -- 53
2020-06-30 22:00:00 26.5 9 Norte 28 Nordeste 0 -- -- 49
2020-06-30 21:00:00 28.5 15 Norte 33 Nordeste 0 -- -- 43
2020-06-30 20:00:00 30.2 20 Nordeste 35 Nordeste 0 -- -- 39
2020-06-30 19:00:00 35.1 22 Sur 37 Sudoeste 0 -- -- 20
2020-06-30 18:00:00 34.1 14 Sur 37 Sudoeste 0 -- -- 25
2020-06-30 17:00:00 35.5 12 Sur 39 Sur 0 -- -- 22
2020-06-30 16:00:00 35.2 15 Sur 35 Sur 0 -- -- 24
2020-06-30 15:00:00 32.6 12 Nordeste 24 Nordeste 0 -- -- 33
2020-06-30 14:00:00 30.9 9 Nordeste 16 Este 0 -- -- 37
2020-06-30 13:00:00 28.8 7 Nordeste 15 Este 0 -- -- 39
2020-06-30 12:00:00 26.6 5 Nordeste 14 Nordeste 0 -- -- 45
2020-06-30 11:00:00 24.2 5 Este 14 Nordeste 0 -- -- 51
2020-06-30 10:00:00 22.2 8 Nordeste 13 Nordeste 0 -- -- 57
2020-06-30 09:00:00 20.3 3 Norte 6 Norte 0 -- -- 71
2020-06-30 08:00:00 17.5 0 Calma 3 Sudoeste 0 -- -- 81
2020-06-30 07:00:00 15.8 0 Calma 2 Sudoeste 0 -- -- 83
2020-06-30 06:00:00 15.8 0 Calma 4 Sur 0 -- -- 83
2020-06-30 05:00:00 16 0 Calma 4 Sudoeste 0 -- -- 81
2020-06-30 04:00:00 16.6 0 Calma 6 Sudoeste 0 -- -- 79
2020-06-30 03:00:00 17.7 2 Oeste 8 Sudeste 0 -- -- 76
2020-06-30 02:00:00 19.5 2 Sur 7 Norte 0 -- -- 70
2020-06-30 01:00:00 20.6 3 Norte 11 Norte 0 -- -- 67
2020-06-30 00:00:00 21.9 8 Nordeste 14 Norte 0 -- -- 64
2020-06-29 23:00:00 23.2 12 Nordeste 24 Nordeste 0 -- -- 60
2020-06-29 22:00:00 24.7 16 Nordeste 31 Nordeste 0 -- -- 55
2020-06-29 21:00:00 26.8 18 Nordeste 34 Nordeste 0 -- -- 51
2020-06-29 20:00:00 29.8 21 Nordeste 33 Nordeste 0 -- -- 45
2020-06-29 19:00:00 34.3 11 Oeste 30 Sudoeste 0 -- -- 24
2020-06-29 18:00:00 34.5 9 Sudoeste 26 Sudoeste 0 -- -- 24
2020-06-29 17:00:00 34 19 Sudoeste 34 Sudoeste 0 -- -- 26
2020-06-29 16:00:00 33.1 8 Sudoeste 30 Sudoeste 0 -- -- 30
2020-06-29 15:00:00 32.7 15 Sudoeste 31 Sudoeste 0 -- -- 30
2020-06-29 14:00:00 30.7 8 Oeste 22 Oeste 0 -- -- 39
2020-06-29 13:00:00 28.1 4 Oeste 13 Norte 0 -- -- 47
2020-06-29 12:00:00 26.2 6 Este 13 Nordeste 0 -- -- 51
2020-06-29 11:00:00 23.7 4 Este 14 Nordeste 0 -- -- 58
2020-06-29 10:00:00 22.1 8 Nordeste 13 Nordeste 0 -- -- 62
2020-06-29 09:00:00 20.5 4 Nordeste 10 Nordeste 0 -- -- 68
2020-06-29 08:00:00 16.9 0 Calma 9 Sudoeste 0 -- -- 81
2020-06-29 07:00:00 14.9 3 Sudoeste 8 Sudoeste 0 -- -- 85
2020-06-29 06:00:00 15.5 0 Calma 8 Sudoeste 0 -- -- 81
2020-06-29 05:00:00 16.2 0 Calma 4 Sudoeste 0 -- -- 80
2020-06-29 04:00:00 17.1 0 Calma 8 Sur 0 -- -- 77
2020-06-29 03:00:00 18.4 3 Sudoeste 4 Sudoeste 0 -- -- 72
2020-06-29 02:00:00 19.9 0 Calma 4 Sudoeste 0 -- -- 67
2020-06-29 01:00:00 21.8 0 Calma 10 Norte 0 -- -- 61
2020-06-29 00:00:00 23.7 6 Norte 17 Noroeste 0 -- -- 56
2020-06-28 23:00:00 25 0 Calma 10 Este 0 -- -- 50
2020-06-28 22:00:00 27 6 Noroeste 21 Noroeste 0 -- -- 43
2020-06-28 21:00:00 29.6 12 Noroeste 22 Sudoeste 0 -- -- 38
2020-06-28 20:00:00 32.2 12 Sudoeste 24 Sudoeste 0 -- -- 29
2020-06-28 19:00:00 32.4 15 Sudoeste 39 Sudoeste 0 -- -- 28
2020-06-28 18:00:00 32.8 15 Sur 29 Sur 0 -- -- 28
2020-06-28 17:00:00 32.1 19 Sudoeste 27 Sudoeste 0 -- -- 30
2020-06-28 16:00:00 31.9 8 Sudoeste 30 Sudoeste 0 -- -- 32
2020-06-28 15:00:00 30.6 5 Oeste 26 Sudoeste 0 -- -- 35
2020-06-28 14:00:00 30 5 Sudoeste 22 Sudoeste 0 -- -- 36
2020-06-28 13:00:00 28.5 9 Sur 18 Sur 0 -- -- 40
2020-06-28 12:00:00 26.8 4 Este 17 Noroeste 0 -- -- 44
2020-06-28 11:00:00 25.9 6 Noroeste 17 Oeste 0 -- -- 47
2020-06-28 10:00:00 23.6 4 Oeste 12 Noroeste 0 -- -- 55
2020-06-28 09:00:00 21 3 Oeste 8 Sudoeste 0 -- -- 60
2020-06-28 08:00:00 17.9 4 Sudoeste 8 Oeste 0 -- -- 69
2020-06-28 07:00:00 16.4 4 Oeste 10 Oeste 0 -- -- 73
2020-06-28 06:00:00 17.1 8 Sudoeste 11 Sudoeste 0 -- -- 70
2020-06-28 05:00:00 17.6 7 Sur 10 Sur 0 -- -- 67
2020-06-28 04:00:00 17.6 3 Sudoeste 12 Sudoeste 0 -- -- 66
2020-06-28 03:00:00 17.8 8 Sudoeste 19 Sudoeste 0 -- -- 64
2020-06-28 02:00:00 18.1 14 Sudoeste 18 Sudoeste 0 -- -- 63
2020-06-28 01:00:00 18.3 12 Sudoeste 15 Sudoeste 0 -- -- 63
2020-06-28 00:00:00 19.1 9 Sudoeste 14 Sudoeste 0 -- -- 61
2020-06-27 23:00:00 20.8 6 Sudoeste 9 Sudoeste 0 -- -- 56
2020-06-27 22:00:00 23.6 6 Sudoeste 20 Oeste 0 -- -- 48
2020-06-27 21:00:00 27 14 Oeste 23 Oeste 0 -- -- 39
2020-06-27 20:00:00 29 13 Oeste 24 Oeste 0 -- -- 36
2020-06-27 19:00:00 29.9 12 Oeste 26 Oeste 0 -- -- 37
2020-06-27 18:00:00 29 12 Sudoeste 18 Sudoeste 0 -- -- 33
2020-06-27 17:00:00 30.4 9 Sudoeste 28 Sur 0 -- -- 31
2020-06-27 16:00:00 30.1 13 Sudoeste 31 Sudoeste 0 -- -- 31
2020-06-27 15:00:00 28.9 12 Sur 39 Sudoeste 0 -- -- 32
2020-06-27 14:00:00 28 15 Oeste 31 Sudoeste 0 -- -- 34
2020-06-27 13:00:00 27 14 Sudoeste 30 Sudoeste 0 -- -- 37
2020-06-27 12:00:00 25.4 6 Sudoeste 19 Sudoeste 0 -- -- 43
2020-06-27 11:00:00 23.2 9 Oeste 22 Oeste 0 -- -- 49
2020-06-27 10:00:00 20.6 9 Sudoeste 14 Sudoeste 0 -- -- 57
2020-06-27 09:00:00 18.9 7 Sudoeste 12 Sudoeste 0 -- -- 62
2020-06-27 08:00:00 15.9 3 Sur 9 Sudoeste 0 -- -- 69
2020-06-27 07:00:00 13.6 5 Sudoeste 12 Sudoeste 0 -- -- 73
2020-06-27 06:00:00 13.2 5 Sudoeste 9 Sudoeste 0 -- -- 71
2020-06-27 05:00:00 13.5 3 Sudoeste 6 Sudoeste 0 -- -- 68
2020-06-27 04:00:00 14.7 0 Calma 9 Oeste 0 -- -- 62
2020-06-27 03:00:00 16.1 8 Oeste 20 Oeste 0 -- -- 52
2020-06-27 02:00:00 16.5 9 Sudoeste 19 Oeste 0 -- -- 55
2020-06-27 01:00:00 17.1 8 Sudoeste 13 Sudoeste 0 -- -- 68
2020-06-27 00:00:00 19.6 3 Sur 15 Noroeste 0 -- -- 61
2020-06-26 23:00:00 21.6 7 Noroeste 14 Norte 0 -- -- 54
2020-06-26 22:00:00 23.8 3 Nordeste 9 Oeste 0 -- -- 37
2020-06-26 21:00:00 26.1 8 Sudoeste 32 Sudoeste 0 -- -- 31
2020-06-26 20:00:00 27.9 17 Sudoeste 42 Sudoeste 0 -- -- 30
2020-06-26 19:00:00 29.3 23 Sudoeste 45 Sudoeste 0 -- -- 30
2020-06-26 18:00:00 30.2 27 Sudoeste 44 Sudoeste 0 -- -- 30
2020-06-26 17:00:00 30 24 Sudoeste 43 Sudoeste 0 -- -- 33
2020-06-26 16:00:00 29.7 24 Sudoeste 39 Sur 0 -- -- 35
2020-06-26 15:00:00 29.1 22 Sur 44 Sudoeste 0 -- -- 35
2020-06-26 14:00:00 29.5 27 Sur 43 Sur 0 -- -- 33
2020-06-26 13:00:00 28.5 19 Sur 34 Sur 0 -- -- 41
2020-06-26 12:00:00 26.7 14 Sur 24 Sudeste 0 -- -- 45
2020-06-26 11:00:00 23.8 5 Este 12 Nordeste 0 -- -- 58
2020-06-26 10:00:00 21 6 Nordeste -- -- -- -- -- 70
2020-06-26 09:00:00 -- -- -- -- -- -- -- -- --
2020-06-26 08:00:00 -- -- -- -- -- -- -- -- --
2020-06-26 07:00:00 -- -- -- -- -- -- -- -- --
2020-06-26 06:00:00 -- -- -- -- -- -- -- -- --
2020-06-26 05:00:00 -- -- -- -- -- -- -- -- --
2020-06-26 04:00:00 -- -- -- -- -- -- -- -- --
2020-06-26 03:00:00 -- -- -- -- -- -- -- -- --
2020-06-26 02:00:00 -- -- -- -- -- -- -- -- --
2020-06-26 01:00:00 -- -- -- -- -- -- -- -- --
2020-06-26 00:00:00 -- -- -- -- -- -- -- -- --
2020-06-25 23:00:00 -- -- -- -- -- -- -- -- --
2020-06-25 22:00:00 20.5 8 Nordeste 32 Noroeste 0 -- -- 69
2020-06-25 21:00:00 23.1 12 Noroeste 24 Norte 0 -- -- 58
2020-06-25 20:00:00 25.4 14 Norte 32 Nordeste 0 -- -- 49
2020-06-25 19:00:00 26.7 17 Nordeste 34 Nordeste 0 -- -- 45
2020-06-25 18:00:00 27.9 21 Nordeste 44 Nordeste 0 -- -- 39
2020-06-25 17:00:00 33.5 14 Sur 37 Sudoeste 0 -- -- 27
2020-06-25 16:00:00 32.8 17 Sur 37 Sur 0 -- -- 29
2020-06-25 15:00:00 31.6 20 Sur 34 Sudoeste 0 -- -- 31
2020-06-25 14:00:00 31.7 19 Sur 31 Sur 0 -- -- 31
2020-06-25 13:00:00 30.2 21 Sur 31 Sur 0 -- -- 33
2020-06-25 12:00:00 28.6 8 Sudeste 15 Sudeste 0 -- -- 37
2020-06-25 11:00:00 25.4 6 Nordeste 12 Nordeste 0 -- -- 48
2020-06-25 10:00:00 23.2 3 Este 8 Nordeste 0 -- -- 54
2020-06-25 09:00:00 19.9 2 Noroeste 9 Sudoeste 0 -- -- 64
2020-06-25 08:00:00 16 4 Sudoeste 9 Sudoeste 0 -- -- 77
2020-06-25 07:00:00 14.4 4 Sudoeste 14 Sudoeste 0 -- -- 79
2020-06-25 06:00:00 15.1 11 Sudoeste 14 Oeste 0 -- -- 78
2020-06-25 05:00:00 15.6 7 Sudoeste 13 Sur 0 -- -- 75
2020-06-25 04:00:00 16.3 9 Oeste 12 Oeste 0 -- -- 73
2020-06-25 03:00:00 17 4 Sur 18 Sudoeste 0 -- -- 70
2020-06-25 02:00:00 17.1 3 Sur 8 Sur 0 -- -- 68
2020-06-25 01:00:00 19.6 4 Norte 15 Norte 0 -- -- 60
2020-06-25 00:00:00 21 9 Norte 18 Norte 0 -- -- 56
2020-06-24 23:00:00 22.2 8 Sudoeste 13 Oeste 0 -- -- 52
2020-06-24 22:00:00 24.4 7 Sudeste 11 Sudeste 0 -- -- 46
2020-06-24 21:00:00 26.9 5 Sudoeste 17 Sur 0 -- -- 40
2020-06-24 20:00:00 30.6 10 Sudoeste 18 Sudoeste 0 -- -- 29
2020-06-24 19:00:00 30.7 9 Sur 25 Sur 0 -- -- 28
2020-06-24 18:00:00 30.1 13 Sur 23 Sur 0 -- -- 31
2020-06-24 17:00:00 26.4 5 Norte 19 Sudoeste 0 -- -- 42
2020-06-24 16:00:00 24.3 18 Sudoeste 43 Sudoeste 0 -- -- 47
2020-06-24 15:00:00 24.4 36 Sudoeste 59 Sudoeste 0 -- -- 51
2020-06-24 14:00:00 24.8 30 Sur 55 Sur 0 -- -- 53
2020-06-24 13:00:00 25.9 16 Sudoeste 29 Sudoeste 0 -- -- 44
2020-06-24 12:00:00 27.1 10 Sudoeste 30 Oeste 0 -- -- 39
2020-06-24 11:00:00 27 16 Sur 24 Sur 0 -- -- 45
2020-06-24 10:00:00 25 5 Sudoeste 14 Sudoeste 0 -- -- 53
2020-06-24 09:00:00 20.6 11 Sudoeste 14 Sudoeste 0 -- -- 65
2020-06-24 08:00:00 18.3 0 Calma 13 Nordeste 0 -- -- 72
2020-06-24 07:00:00 19.1 10 Sudoeste 17 Oeste 0 -- -- 66
2020-06-24 06:00:00 18.7 9 Sudoeste 17 Oeste 0 -- -- 66
2020-06-24 05:00:00 18.4 10 Oeste 19 Oeste 0 -- -- 66
2020-06-24 04:00:00 18.3 9 Sudoeste 14 Sudoeste 0 -- -- 67
2020-06-24 03:00:00 19.6 9 Sur 17 Oeste 0 -- -- 65
2020-06-24 02:00:00 21.3 3 Nordeste 15 Sudeste 0 -- -- 62
2020-06-24 01:00:00 22.8 8 Oeste 21 Noroeste 0 -- -- 53
2020-06-24 00:00:00 23.2 11 Oeste 22 Noroeste 0.2 -- -- 55
2020-06-23 23:00:00 25 18 Noroeste 27 Oeste 0 -- -- 48
2020-06-23 22:00:00 26.8 9 Nordeste 26 Nordeste 0 -- -- 44
2020-06-23 21:00:00 28.6 15 Nordeste 30 Nordeste 0 -- -- 41
2020-06-23 20:00:00 31.7 6 Oeste 17 Oeste 0 -- -- 29
2020-06-23 19:00:00 32.5 13 Noroeste 24 Oeste 0 -- -- 29
2020-06-23 18:00:00 32.8 10 Sur 24 Sur 0 -- -- 28
2020-06-23 17:00:00 34.3 15 Sur 25 Sur 0 -- -- 26
2020-06-23 16:00:00 33.6 12 Sur 29 Sudoeste 0 -- -- 26
2020-06-23 15:00:00 32.6 6 Sur 27 Sudoeste 0 -- -- 27
2020-06-23 14:00:00 32 6 Este 15 Nordeste 0 -- -- 32
2020-06-23 13:00:00 30 6 Este 15 Nordeste 0 -- -- 38
2020-06-23 12:00:00 27.8 5 Nordeste 12 Nordeste 0 -- -- 43
2020-06-23 11:00:00 25.4 6 Nordeste 12 Nordeste 0 -- -- 46
2020-06-23 10:00:00 23.1 3 Nordeste 8 Nordeste 0 -- -- 49
2020-06-23 09:00:00 19.9 2 Este 8 Sudoeste 0 -- -- 60
2020-06-23 08:00:00 15.9 6 Sudoeste 13 Sudoeste 0 -- -- 71
2020-06-23 07:00:00 13.3 8 Sudoeste 14 Sudoeste 0 -- -- 78
2020-06-23 06:00:00 13.9 5 Sudoeste 13 Sudoeste 0 -- -- 75
2020-06-23 05:00:00 14.1 6 Sudoeste 13 Sudoeste 0 -- -- 75
2020-06-23 04:00:00 15.2 11 Sudoeste 15 Oeste 0 -- -- 71
2020-06-23 03:00:00 15.7 8 Sudoeste 16 Sudoeste 0 -- -- 70
2020-06-23 02:00:00 16.3 6 Sur 9 Sur 0 -- -- 69
2020-06-23 01:00:00 17.6 2 Sur 7 Sudoeste 0 -- -- 64
2020-06-23 00:00:00 19.8 2 Sudoeste 6 Nordeste 0 -- -- 59
2020-06-22 23:00:00 23.4 4 Nordeste 11 Norte 0 -- -- 47
2020-06-22 22:00:00 25.6 6 Nordeste 19 Nordeste 0 -- -- 43
2020-06-22 21:00:00 28.5 12 Nordeste 27 Nordeste 0 -- -- 36
2020-06-22 20:00:00 30.5 3 Nordeste 14 Nordeste 0 -- -- 24
2020-06-22 19:00:00 31.2 3 Noroeste 14 Sudeste 0 -- -- 24
2020-06-22 18:00:00 31.1 4 Norte 21 Norte 0 -- -- 24
2020-06-22 17:00:00 30.8 5 Nordeste 20 Sudoeste 0 -- -- 27
2020-06-22 16:00:00 30.5 5 Este 21 Noroeste 0 -- -- 29
2020-06-22 15:00:00 29.1 5 Nordeste 13 Oeste 0 -- -- 33
2020-06-22 14:00:00 27.6 5 Norte 10 Nordeste 0 -- -- 38
2020-06-22 13:00:00 26.7 5 Nordeste 12 Oeste 0 -- -- 41
2020-06-22 12:00:00 24.6 3 Oeste 10 Oeste 0 -- -- 45
2020-06-22 11:00:00 22.8 3 Nordeste 10 Norte 0 -- -- 51
2020-06-22 10:00:00 20.9 4 Noroeste 10 Noroeste 0 -- -- 56
2020-06-22 09:00:00 17.9 0 Calma 8 Oeste 0 -- -- 69
2020-06-22 08:00:00 14.4 6 Sudoeste 10 Sudoeste 0 -- -- 78
2020-06-22 07:00:00 11.6 6 Sudoeste 9 Sudoeste 0 -- -- 84
2020-06-22 06:00:00 11.9 0 Calma 4 Sur 0 -- -- 80
2020-06-22 05:00:00 12.6 0 Calma 7 Sudeste 0 -- -- 79
2020-06-22 04:00:00 13.7 3 Sur 6 Oeste 0 -- -- 75
2020-06-22 03:00:00 14.7 2 Sudoeste 6 Norte 0 -- -- 71
2020-06-22 02:00:00 16.5 3 Noroeste 9 Nordeste 0 -- -- 64
2020-06-22 01:00:00 17.1 4 Nordeste 22 Noroeste 0 -- -- 63
2020-06-22 00:00:00 18.4 14 Noroeste 27 Noroeste 0 -- -- 58
2020-06-21 23:00:00 20 17 Noroeste 36 Norte 0 -- -- 54
2020-06-21 22:00:00 22.3 22 Noroeste 35 Norte 0 -- -- 47
2020-06-21 21:00:00 26.2 17 Noroeste 28 Noroeste 0 -- -- 39
2020-06-21 20:00:00 29.2 13 Oeste 28 Oeste 0 -- -- 28
2020-06-21 19:00:00 30 13 Oeste 31 Oeste 0 -- -- 31
2020-06-21 18:00:00 30.3 8 Noroeste 39 Oeste 0 -- -- 33
2020-06-21 17:00:00 30.4 13 Oeste 30 Oeste 0 -- -- 33
2020-06-21 16:00:00 29.9 10 Sudoeste 28 Sudoeste 0 -- -- 32
2020-06-21 15:00:00 29.1 12 Oeste 26 Sudoeste 0 -- -- 33
2020-06-21 14:00:00 28.2 11 Oeste 26 Sudoeste 0 -- -- 35
2020-06-21 13:00:00 27.3 8 Sudoeste 23 Sudoeste 0 -- -- 36
2020-06-21 12:00:00 26.4 6 Noroeste 18 Noroeste 0 -- -- 35
2020-06-21 11:00:00 24.5 3 Sudoeste 9 Sudeste 0 -- -- 44
2020-06-21 10:00:00 22.7 3 Sur 8 Sudoeste 0 -- -- 48
2020-06-21 09:00:00 19.8 5 Sudoeste 13 Oeste 0 -- -- 59
2020-06-21 08:00:00 15.7 8 Sudoeste 14 Sudoeste 0 -- -- 73
2020-06-21 07:00:00 13.5 10 Sudoeste 14 Sudoeste 0 -- -- 81
2020-06-21 06:00:00 14.2 11 Sudoeste 14 Sudoeste 0 -- -- 79
2020-06-21 05:00:00 14.7 10 Sudoeste 16 Sudoeste 0 -- -- 78
2020-06-21 04:00:00 14.7 9 Sudoeste 12 Sudoeste 0 -- -- 78
2020-06-21 03:00:00 15.5 9 Sudoeste 13 Sudoeste 0 -- -- 74
2020-06-21 02:00:00 16.2 2 Sudoeste 8 Sudoeste 0 -- -- 71
2020-06-21 01:00:00 17.8 2 Sur 4 Norte 0 -- -- 60
2020-06-21 00:00:00 21.3 3 Nordeste 13 Norte 0 -- -- 51
2020-06-20 23:00:00 21.7 4 Sudoeste 16 Oeste 0 -- -- 45
2020-06-20 22:00:00 24.7 10 Oeste 17 Oeste 0 -- -- 36
2020-06-20 21:00:00 27.5 6 Oeste 19 Sudoeste 0 -- -- 37
2020-06-20 20:00:00 28.1 9 Sudoeste 23 Sudoeste 0 -- -- 31
2020-06-20 19:00:00 29.1 14 Sudoeste 32 Sudoeste 0 -- -- 29
2020-06-20 18:00:00 29.9 11 Sudoeste 26 Sudoeste 0 -- -- 29
2020-06-20 17:00:00 29.3 18 Sudoeste 32 Sur 0 -- -- 29
2020-06-20 16:00:00 28.8 18 Sudoeste 31 Sudoeste 0 -- -- 32
2020-06-20 15:00:00 28.4 17 Sudoeste 35 Sudoeste 0 -- -- 32
2020-06-20 14:00:00 27.1 16 Sudoeste 24 Sudoeste 0 -- -- 33
2020-06-20 13:00:00 24.7 5 Noroeste 12 Norte 0 -- -- 47
2020-06-20 12:00:00 23.6 5 Sudeste 13 Nordeste 0 -- -- 53
2020-06-20 11:00:00 21.9 5 Este 11 Nordeste 0 -- -- 61
2020-06-20 10:00:00 20.2 5 Nordeste 12 Nordeste 0 -- -- 68
2020-06-20 09:00:00 18 2 Oeste 10 Sudoeste 0 -- -- 74
2020-06-20 08:00:00 14.3 9 Oeste 13 Sudoeste 0 -- -- 83
2020-06-20 07:00:00 12.8 9 Sudoeste 15 Oeste 0 -- -- 86
2020-06-20 06:00:00 13 11 Sudoeste 14 Sudoeste 0 -- -- 86
2020-06-20 05:00:00 13.5 8 Sudoeste 11 Sudoeste 0 -- -- 84
2020-06-20 04:00:00 14 3 Sudoeste 12 Sudoeste 0 -- -- 81
2020-06-20 03:00:00 14.7 3 Sur 10 Sudoeste 0 -- -- 79
2020-06-20 02:00:00 16.2 5 Sudoeste 9 Sudoeste 0 -- -- 74
2020-06-20 01:00:00 18.8 2 Sur 12 Norte 0 -- -- 66
2020-06-20 00:00:00 21 9 Norte 13 Norte 0 -- -- 61
2020-06-19 23:00:00 22.3 5 Nordeste 19 Oeste 0 -- -- 43
2020-06-19 22:00:00 23.4 14 Oeste 21 Oeste 0 -- -- 34
2020-06-19 21:00:00 24.7 5 Oeste 17 Sudoeste 0 -- -- 45
2020-06-19 20:00:00 26.8 8 Sudoeste 19 Oeste 0 -- -- 37
2020-06-19 19:00:00 27.6 10 Sudoeste 23 Sur 0 -- -- 36
2020-06-19 18:00:00 26.3 10 Sudoeste 33 Sudoeste 0 -- -- 36
2020-06-19 17:00:00 26.7 15 Sudoeste 33 Sudoeste 0 -- -- 35
2020-06-19 16:00:00 26.7 20 Sudoeste 35 Sudoeste 0 -- -- 36
2020-06-19 15:00:00 26.3 19 Sudoeste 35 Sudoeste 0 -- -- 35
2020-06-19 14:00:00 25.4 15 Sur 35 Sur 0 -- -- 41
2020-06-19 13:00:00 24.1 17 Sur 30 Sur 0 -- -- 47
2020-06-19 12:00:00 23 12 Sur 22 Sur 0 -- -- 55
2020-06-19 11:00:00 20.4 4 Este 10 Norte 0 -- -- 62
2020-06-19 10:00:00 17.1 3 Nordeste 7 Nordeste 0 -- -- 67
2020-06-19 09:00:00 14.4 0 Calma 5 Oeste 0 -- -- 77
2020-06-19 08:00:00 11.8 4 Sudoeste 7 Sur 0 -- -- 87
2020-06-19 07:00:00 10 5 Sudoeste 8 Sudoeste 0 -- -- 88
2020-06-19 06:00:00 9.9 5 Sudoeste 6 Sudoeste 0 -- -- 88
2020-06-19 05:00:00 9.7 0 Calma 6 Oeste 0 -- -- 86
2020-06-19 04:00:00 10.2 0 Calma 6 Sudoeste 0 -- -- 86
2020-06-19 03:00:00 10.8 0 Calma 4 Sudoeste 0 -- -- 84
2020-06-19 02:00:00 11.9 0 Calma 5 Sudoeste 0 -- -- 80
2020-06-19 01:00:00 13.2 2 Sudoeste 4 Sudoeste 0 -- -- 77
2020-06-19 00:00:00 15.2 3 Norte 7 Norte 0 -- -- 69
2020-06-18 23:00:00 16.5 4 Norte 11 Nordeste 0 -- -- 65
2020-06-18 22:00:00 18.2 8 Nordeste 22 Nordeste 0 -- -- 60
2020-06-18 21:00:00 19.7 11 Norte 26 Nordeste 0 -- -- 57
2020-06-18 20:00:00 21 17 Nordeste 28 Norte 0 -- -- 54
2020-06-18 19:00:00 22.9 6 Norte 22 Nordeste 0 -- -- 48
2020-06-18 18:00:00 23.4 8 Norte 22 Nordeste 0 -- -- 49
2020-06-18 17:00:00 22.6 11 Nordeste 23 Norte 0 -- -- 49
2020-06-18 16:00:00 22.8 11 Norte 26 Noroeste 0 -- -- 49
2020-06-18 15:00:00 22.1 5 Norte 17 Sudeste 0 -- -- 49
2020-06-18 14:00:00 21.7 7 Este 21 Nordeste 0 -- -- 51
2020-06-18 13:00:00 20.4 6 Nordeste 18 Nordeste 0 -- -- 56
2020-06-18 12:00:00 19.3 6 Norte 14 Nordeste 0 -- -- 63
2020-06-18 11:00:00 17 5 Norte 13 Norte 0 -- -- 69
2020-06-18 10:00:00 15.3 4 Nordeste 9 Nordeste 0 -- -- 73
2020-06-18 09:00:00 13.6 4 Nordeste 8 Nordeste 0 -- -- 80
2020-06-18 08:00:00 10.3 0 Calma 3 Sur 0 -- -- 91
2020-06-18 07:00:00 8.7 2 Sudoeste 5 Sur 0 -- -- 90
2020-06-18 06:00:00 9.5 3 Sudoeste 6 Sudoeste 0 -- -- 88
2020-06-18 05:00:00 10.7 0 Calma 4 Nordeste 0 -- -- 85
2020-06-18 04:00:00 11.9 3 Este 17 Nordeste 0 -- -- 84
2020-06-18 03:00:00 12.5 6 Noroeste 12 Norte 0 -- -- 81
2020-06-18 02:00:00 13.1 6 Nordeste 21 Nordeste 0 -- -- 80
2020-06-18 01:00:00 13.7 13 Norte 23 Nordeste 0.2 -- -- 75
2020-06-18 00:00:00 15.4 9 Nordeste 21 Norte 0 -- -- 63
2020-06-17 23:00:00 15.8 7 Nordeste 22 Nordeste 0 -- -- 61
2020-06-17 22:00:00 17.2 9 Nordeste 20 Nordeste 0 -- -- 56
2020-06-17 21:00:00 18.3 10 Oeste 19 Oeste 0 -- -- 49
2020-06-17 20:00:00 19.7 13 Oeste 23 Oeste 0 -- -- 45
2020-06-17 19:00:00 22.4 10 Oeste 26 Sudoeste 0 -- -- 41
2020-06-17 18:00:00 21.9 7 Oeste 25 Sudoeste 0 -- -- 42
2020-06-17 17:00:00 20.5 5 Sur 21 Oeste 0 -- -- 43
2020-06-17 16:00:00 19.9 8 Oeste 21 Sudoeste 0 -- -- 44
2020-06-17 15:00:00 19.1 9 Sudoeste 24 Sudoeste 0 -- -- 45
2020-06-17 14:00:00 19.4 5 Oeste 13 Norte 0 -- -- 47
2020-06-17 13:00:00 18 6 Nordeste 16 Nordeste 0 -- -- 51
2020-06-17 12:00:00 17.6 9 Este 18 Nordeste 0 -- -- 58
2020-06-17 11:00:00 14.8 4 Nordeste 10 Nordeste 0 -- -- 72
2020-06-17 10:00:00 13.3 3 Norte 6 Sudeste 0 -- -- 77
2020-06-17 09:00:00 12.2 3 Sur 6 Sur 0 -- -- 84
2020-06-17 08:00:00 10.9 0 Calma 4 Noroeste 0 -- -- 88
2020-06-17 07:00:00 10.1 0 Calma 4 Noroeste 0 -- -- 90
2020-06-17 06:00:00 9.2 0 Calma 7 Sudeste 0 -- -- 90
2020-06-17 05:00:00 8.4 3 Sur 5 Sur 0 -- -- 88
2020-06-17 04:00:00 9.2 0 Calma 4 Sudoeste 0 -- -- 86
2020-06-17 03:00:00 10.2 2 Sur 6 Sudoeste 0 -- -- 84
2020-06-17 02:00:00 11.1 0 Calma 8 Noroeste 0 -- -- 80
2020-06-17 01:00:00 12.6 5 Noroeste 12 Noroeste 0 -- -- 74
2020-06-17 00:00:00 13.7 3 Nordeste 17 Norte 0 -- -- 70
2020-06-16 23:00:00 14.2 9 Sudoeste 13 Oeste 0 -- -- 72
2020-06-16 22:00:00 15.8 6 Sur 15 Sudoeste 0 -- -- 62
2020-06-16 21:00:00 17 14 Sudoeste 30 Sudoeste 0 -- -- 58
2020-06-16 20:00:00 16.6 28 Sudoeste 51 Sudoeste 0 -- -- 59
2020-06-16 19:00:00 19.4 25 Oeste 58 Sudoeste 0 -- -- 49
2020-06-16 18:00:00 21.5 18 Sudoeste 37 Sudoeste 0 -- -- 43
2020-06-16 17:00:00 21.4 20 Sudoeste 37 Sudoeste 0 -- -- 43
2020-06-16 16:00:00 21.1 24 Sudoeste 38 Sudoeste 0 -- -- 44
2020-06-16 15:00:00 20.7 20 Sudoeste 34 Oeste 0 -- -- 47
2020-06-16 14:00:00 19.5 15 Oeste 34 Sudoeste 0 -- -- 52
2020-06-16 13:00:00 18.6 19 Oeste 33 Sudoeste 0 -- -- 56
2020-06-16 12:00:00 17.2 10 Sudoeste 23 Sudoeste 0 -- -- 65
2020-06-16 11:00:00 14.8 0 Calma 8 Sudoeste 0 -- -- 76
2020-06-16 10:00:00 13.2 3 Sudeste 8 Sur 0 -- -- 85
2020-06-16 09:00:00 12.2 5 Sur 10 Sudeste 0 -- -- 89
2020-06-16 08:00:00 12.6 5 Sudoeste 9 Sudoeste 0 -- -- 87
2020-06-16 07:00:00 12.7 0 Calma 4 Sudoeste 0 -- -- 88
2020-06-16 06:00:00 12.8 3 Sudoeste 12 Sudoeste 0 -- -- 88
2020-06-16 05:00:00 13.2 7 Sudoeste 12 Sudoeste 0 -- -- 87
2020-06-16 04:00:00 13.6 4 Sudoeste 13 Oeste 0 -- -- 84
2020-06-16 03:00:00 14.2 8 Oeste 15 Oeste 0 -- -- 80
2020-06-16 02:00:00 14.9 4 Noroeste 8 Noroeste 0 -- -- 88
2020-06-16 01:00:00 15.4 3 Sur 10 Oeste 0 -- -- 87
2020-06-16 00:00:00 16 2 Nordeste 7 Sur 0 -- -- 83
2020-06-15 23:00:00 16.6 2 Sudeste 8 Sur 0.4 -- -- 80
2020-06-15 22:00:00 17.2 6 Sudoeste 9 Oeste 0 -- -- 69
2020-06-15 21:00:00 18.3 9 Sudoeste 14 Sudoeste 0 -- -- 62
2020-06-15 20:00:00 18.5 7 Sudoeste 31 Oeste 0 -- -- 59
2020-06-15 19:00:00 20.5 15 Oeste 22 Oeste 0 -- -- 52
2020-06-15 18:00:00 20.3 13 Oeste 30 Oeste 0 -- -- 55
2020-06-15 17:00:00 22.8 16 Oeste 26 Oeste 0 -- -- 43
2020-06-15 16:00:00 23.9 17 Sudoeste 28 Sudoeste 0 -- -- 41
2020-06-15 15:00:00 23.5 15 Sudoeste 29 Sudoeste 0 -- -- 43
2020-06-15 14:00:00 22.5 11 Sudoeste 21 Sudoeste 0 -- -- 45
2020-06-15 13:00:00 21.1 7 Oeste 20 Oeste 0 -- -- 52
2020-06-15 12:00:00 19.3 4 Sudoeste 12 Sur 0 -- -- 52
2020-06-15 11:00:00 17.6 3 Norte 8 Norte 0 -- -- 59
2020-06-15 10:00:00 15.8 2 Sudeste 6 Oeste 0 -- -- 64
2020-06-15 09:00:00 14 2 Sur 5 Oeste 0 -- -- 72
2020-06-15 08:00:00 12.3 4 Sudoeste 9 Sudoeste 0 -- -- 78
2020-06-15 07:00:00 10.6 6 Sudoeste 12 Oeste 0 -- -- 81
2020-06-15 06:00:00 10.2 8 Sudoeste 11 Sudoeste 0 -- -- 80
2020-06-15 05:00:00 10.9 10 Sudoeste 16 Sudoeste 0 -- -- 76
2020-06-15 04:00:00 10.5 14 Oeste 17 Oeste 0 -- -- 77
2020-06-15 03:00:00 11.3 10 Sudoeste 15 Sudoeste 0 -- -- 75
2020-06-15 02:00:00 11.7 10 Sudoeste 14 Sudoeste 0 -- -- 74
2020-06-15 01:00:00 11.9 11 Oeste 13 Oeste 0 -- -- 72
2020-06-15 00:00:00 13.2 6 Sudoeste 10 Sudoeste 0 -- -- 70
2020-06-14 23:00:00 15.7 3 Oeste 10 Oeste 0 -- -- 61
2020-06-14 22:00:00 17.2 8 Oeste 22 Oeste 0 -- -- 53
2020-06-14 21:00:00 19.2 12 Oeste 23 Oeste 0 -- -- 46
2020-06-14 20:00:00 20.6 17 Oeste 24 Oeste 0 -- -- 43
2020-06-14 19:00:00 21.6 8 Oeste 23 Oeste 0 -- -- 46
2020-06-14 18:00:00 22.4 12 Oeste 29 Oeste 0 -- -- 44
2020-06-14 17:00:00 21.8 13 Sudoeste 29 Sudoeste 0 -- -- 40
2020-06-14 16:00:00 21.9 12 Sudoeste 33 Sudoeste 0 -- -- 39
2020-06-14 15:00:00 22 18 Sudoeste 31 Sudoeste 0 -- -- 39
2020-06-14 14:00:00 20.6 16 Oeste 28 Sudoeste 0 -- -- 43
2020-06-14 13:00:00 20.1 9 Sudoeste 23 Sudoeste 0 -- -- 44
2020-06-14 12:00:00 19.3 5 Oeste 14 Oeste 0 -- -- 50
2020-06-14 11:00:00 17.9 5 Sur 14 Sudoeste 0 -- -- 54
2020-06-14 10:00:00 16.1 5 Sudoeste 12 Norte 0 -- -- 60
2020-06-14 09:00:00 14.4 6 Sudoeste 12 Sudoeste 0 -- -- 67
2020-06-14 08:00:00 11.2 7 Oeste 13 Sudoeste 0 -- -- 80
2020-06-14 07:00:00 9.5 6 Sudoeste 14 Oeste 0 -- -- 83
2020-06-14 06:00:00 10 6 Sudoeste 12 Sudoeste 0 -- -- 80
2020-06-14 05:00:00 11 7 Sudoeste 10 Sudoeste 0 -- -- 77
2020-06-14 04:00:00 11.1 5 Sudoeste 10 Oeste 0 -- -- 77
2020-06-14 03:00:00 11.6 8 Sudoeste 15 Sudoeste 0 -- -- 72
2020-06-14 02:00:00 11.5 10 Oeste 14 Sudoeste 0 -- -- 73
2020-06-14 01:00:00 12.2 9 Sudoeste 13 Sudoeste 0 -- -- 71
2020-06-14 00:00:00 12.9 7 Sudoeste 12 Sur 0 -- -- 68
2020-06-13 23:00:00 13.9 6 Sudoeste 10 Sudoeste 0 -- -- 64
2020-06-13 22:00:00 14.7 6 Sudoeste 12 Oeste 0 -- -- 63
2020-06-13 21:00:00 17.6 6 Oeste 14 Norte 0 -- -- 52
2020-06-13 20:00:00 19.2 8 Oeste 22 Oeste 0 -- -- 43
2020-06-13 19:00:00 20.4 14 Oeste 28 Oeste 0 -- -- 39
2020-06-13 18:00:00 20.3 12 Oeste 33 Oeste 0 -- -- 38
2020-06-13 17:00:00 20.2 20 Sudoeste 37 Sudoeste 0 -- -- 41
2020-06-13 16:00:00 20 22 Sudoeste 39 Sudoeste 0 -- -- 41
2020-06-13 15:00:00 19.4 22 Oeste 45 Oeste 0 -- -- 41
2020-06-13 14:00:00 18.1 25 Sudoeste 41 Oeste 0 -- -- 44
2020-06-13 13:00:00 17.2 21 Oeste 37 Oeste 0 -- -- 48
2020-06-13 12:00:00 15.8 23 Sudoeste 36 Sudoeste 0 -- -- 50
2020-06-13 11:00:00 14.3 24 Sudoeste 39 Sudoeste 0 -- -- 57
2020-06-13 10:00:00 13.6 23 Sudoeste 33 Sudoeste 0 -- -- 63
2020-06-13 09:00:00 12.5 18 Sudoeste 25 Sudoeste 0 -- -- 75
2020-06-13 08:00:00 10.6 9 Sudoeste 14 Sudoeste 0 -- -- 85
2020-06-13 07:00:00 10.1 8 Sudoeste 13 Sudoeste 0 -- -- 86
2020-06-13 06:00:00 9.7 9 Sudoeste 17 Oeste 0 -- -- 87
2020-06-13 05:00:00 8.5 6 Sudoeste 22 Sudoeste 0 -- -- 87
2020-06-13 04:00:00 9.6 15 Sudoeste 23 Sudoeste 0 -- -- 83
2020-06-13 03:00:00 10.1 13 Sudoeste 26 Sudoeste 0 -- -- 81
2020-06-13 02:00:00 10.2 12 Sudoeste 21 Sudoeste 0 -- -- 82
2020-06-13 01:00:00 10.1 5 Oeste 12 Oeste 0 -- -- 83
2020-06-13 00:00:00 10.8 3 Norte 9 Norte 0 -- -- 85
2020-06-12 23:00:00 11.5 2 Sur 15 Sudoeste 0 -- -- 86
2020-06-12 22:00:00 11.9 9 Sur 44 Sur 0.2 -- -- 78
2020-06-12 21:00:00 15.9 18 Sudoeste 35 Sudoeste 0 -- -- 53
2020-06-12 20:00:00 16.9 21 Sudoeste 55 Sudoeste 0 -- -- 55
2020-06-12 19:00:00 17.5 26 Sudoeste 50 Sudoeste 0 -- -- 48
2020-06-12 18:00:00 18.8 30 Sudoeste 50 Sudoeste 0 -- -- 44
2020-06-12 17:00:00 18.3 33 Sudoeste 53 Sudoeste 0 -- -- 46
2020-06-12 16:00:00 17.8 32 Sur 47 Sur 0 -- -- 46
2020-06-12 15:00:00 16.4 29 Sudoeste 45 Sur 0 -- -- 50
2020-06-12 14:00:00 15.4 27 Sur 49 Sur 0 -- -- 52
2020-06-12 13:00:00 16.3 31 Sudoeste 50 Sur 0 -- -- 49
2020-06-12 12:00:00 15.3 25 Sur 42 Sur 0 -- -- 56
2020-06-12 11:00:00 13.8 23 Sur 42 Sur 0 -- -- 59
2020-06-12 10:00:00 12.4 28 Sudoeste 44 Sudoeste 0 -- -- 62
2020-06-12 09:00:00 10.9 26 Sur 42 Sudoeste 0 -- -- 64
2020-06-12 08:00:00 9.7 21 Sudoeste 32 Sudoeste 0 -- -- 70
2020-06-12 07:00:00 7.8 8 Sudoeste 17 Oeste 0 -- -- 83
2020-06-12 06:00:00 7.6 10 Sudoeste 17 Sudoeste 0 -- -- 83
2020-06-12 05:00:00 8.2 12 Oeste 17 Oeste 0 -- -- 81
2020-06-12 04:00:00 9.2 3 Sudoeste 17 Oeste 0 -- -- 81
2020-06-12 03:00:00 10.4 9 Oeste 17 Sudoeste 0 -- -- 78
2020-06-12 02:00:00 11.7 3 Sur 8 Oeste 0 -- -- 87
2020-06-12 01:00:00 11.5 0 Calma 14 Sur 0 -- -- 85
2020-06-12 00:00:00 12.8 10 Sur 24 Sur 0 -- -- 83
2020-06-11 23:00:00 12.7 12 Sur 36 Sudoeste 0 -- -- 84
2020-06-11 22:00:00 13.9 19 Sudoeste 33 Sudoeste 0.2 -- -- 78
2020-06-11 21:00:00 17.7 11 Oeste 26 Sudoeste 0 -- -- 51
2020-06-11 20:00:00 19.6 22 Sudoeste 50 Sudoeste 0 -- -- 43
2020-06-11 19:00:00 21.1 28 Sudoeste 51 Sudoeste 0 -- -- 38
2020-06-11 18:00:00 21.3 35 Sudoeste 57 Sudoeste 0 -- -- 39
2020-06-11 17:00:00 19.7 13 Sudoeste 40 Sur 0 -- -- 55
2020-06-11 16:00:00 20.3 23 Sudoeste 43 Sudoeste 0 -- -- 47
2020-06-11 15:00:00 20.9 23 Sur 48 Sudoeste 0 -- -- 49
2020-06-11 14:00:00 20.4 27 Sudoeste 43 Sudoeste 0 -- -- 48
2020-06-11 13:00:00 20.3 24 Sur 42 Sudoeste 0 -- -- 49
2020-06-11 12:00:00 20.2 26 Sudoeste 40 Sudoeste 0 -- -- 51
2020-06-11 11:00:00 19.2 24 Sudoeste 35 Sur 0 -- -- 53
2020-06-11 10:00:00 17.6 19 Sudoeste 28 Sudoeste 0 -- -- 57
2020-06-11 09:00:00 15 0 Calma 4 Sudoeste 0 -- -- 68
2020-06-11 08:00:00 10.6 0 Calma 5 Sudoeste 0 -- -- 85
2020-06-11 07:00:00 8.8 4 Sudoeste 7 Sudoeste 0 -- -- 86
2020-06-11 06:00:00 9.8 0 Calma 4 Sudoeste 0 -- -- 83
2020-06-11 05:00:00 11.5 2 Sur 5 Sudoeste 0 -- -- 79
2020-06-11 04:00:00 12 0 Calma 4 Sudoeste 0 -- -- 77
2020-06-11 03:00:00 12.4 0 Calma 8 Norte 0 -- -- 73
2020-06-11 02:00:00 12.4 4 Noroeste 6 Noroeste 0 -- -- 73
2020-06-11 01:00:00 13 3 Noroeste 5 Norte 0 -- -- 70
2020-06-11 00:00:00 13.9 3 Norte 14 Norte 0 -- -- 65
2020-06-10 23:00:00 14.7 3 Norte 13 Norte 0 -- -- 63
2020-06-10 22:00:00 16.1 6 Norte 17 Nordeste 0 -- -- 60
2020-06-10 21:00:00 18.3 3 Oeste 13 Oeste 0 -- -- 49
2020-06-10 20:00:00 19.1 9 Oeste 14 Oeste 0 -- -- 47
2020-06-10 19:00:00 20 5 Oeste 19 Oeste 0 -- -- 45
2020-06-10 18:00:00 20.3 10 Oeste 26 Oeste 0 -- -- 44
2020-06-10 17:00:00 20.6 12 Sudoeste 31 Oeste 0 -- -- 41
2020-06-10 16:00:00 21.7 15 Sudoeste 30 Oeste 0 -- -- 38
2020-06-10 15:00:00 20.4 9 Oeste 28 Oeste 0 -- -- 38
2020-06-10 14:00:00 18.7 5 Nordeste 18 Sudoeste 0 -- -- 45
2020-06-10 13:00:00 18 6 Nordeste 14 Norte 0 -- -- 46
2020-06-10 12:00:00 16.5 5 Sudoeste 12 Norte 0 -- -- 54
2020-06-10 11:00:00 15.1 3 Este 13 Noroeste 0 -- -- 56
2020-06-10 10:00:00 13.2 3 Nordeste 12 Norte 0 -- -- 63
2020-06-10 09:00:00 11.4 2 Sur 9 Sudoeste 0 -- -- 73
2020-06-10 08:00:00 7.6 9 Oeste 12 Oeste 0 -- -- 86
2020-06-10 07:00:00 5.9 10 Sudoeste 13 Sudoeste 0 -- -- 87
2020-06-10 06:00:00 5.8 10 Sudoeste 14 Sudoeste 0 -- -- 88
2020-06-10 05:00:00 5.5 10 Sudoeste 13 Oeste 0 -- -- 87
2020-06-10 04:00:00 5.9 8 Sudoeste 13 Sudoeste 0 -- -- 86
2020-06-10 03:00:00 6.6 5 Sudoeste 9 Sudoeste 0 -- -- 86
2020-06-10 02:00:00 7.4 5 Sur 7 Sur 0 -- -- 82
2020-06-10 01:00:00 8.7 0 Calma 7 Sudoeste 0 -- -- 79
2020-06-10 00:00:00 10.3 0 Calma 5 Norte 0 -- -- 74